Time;durP1;ratioP1;P1;durP2;ratioP2;P2;SDS_P1;SDS_P2;PMS_P1;PMS_P2;Temp;Humidity;BMP_temperature;BMP_pressure;BME280_temperature;BME280_humidity;BME280_pressure;Samples;Min_cycle;Max_cycle;Signal;HPM_P1;HPM_P2
2022/09/13 00:01:01;;;;;;;5.62;2.90;;;;;;;13.35;77.50;99642.66;1748918;80;21201;-62
2022/09/13 00:03:28;;;;;;;6.17;3.60;;;;;;;13.34;77.40;99641.80;1713242;82;21019;-63
2022/09/13 00:05:54;;;;;;;5.92;3.70;;;;;;;13.33;77.41;99647.25;1725476;81;21545;-63
2022/09/13 00:08:21;;;;;;;6.62;3.25;;;;;;;13.26;77.57;99642.23;1762336;79;21000;-63
2022/09/13 00:10:49;;;;;;;5.70;3.17;;;;;;;13.26;77.65;99639.59;1762422;79;21004;-61
2022/09/13 00:13:16;;;;;;;5.95;3.15;;;;;;;13.28;77.59;99645.54;1768601;79;22125;-63
2022/09/13 00:15:45;;;;;;;6.62;3.62;;;;;;;13.30;77.64;99644.91;1757720;80;21061;-63
2022/09/13 00:18:12;;;;;;;6.47;3.35;;;;;;;13.27;77.71;99639.44;1764727;80;21526;-62
2022/09/13 00:20:38;;;;;;;7.05;3.45;;;;;;;13.26;77.92;99642.23;1766886;80;21003;-63
2022/09/13 00:23:06;;;;;;;6.40;3.20;;;;;;;13.26;77.97;99639.09;1764686;80;21097;-62
2022/09/13 00:25:33;;;;;;;6.28;3.30;;;;;;;13.29;77.82;99636.64;1768151;80;21123;-62
2022/09/13 00:27:59;;;;;;;5.85;3.67;;;;;;;13.29;77.71;99630.03;1765815;80;21086;-63
2022/09/13 00:30:26;;;;;;;7.95;3.10;;;;;;;13.31;77.76;99633.34;1759130;79;21039;-63
2022/09/13 00:32:52;;;;;;;7.25;3.60;;;;;;;13.25;77.91;99631.35;1762554;80;21066;-63
2022/09/13 00:35:19;;;;;;;6.47;3.50;;;;;;;13.19;78.23;99633.61;1759688;79;21129;-63
2022/09/13 00:37:45;;;;;;;6.72;3.65;;;;;;;13.26;78.31;99634.31;1764487;80;21129;-62
2022/09/13 00:40:11;;;;;;;6.58;3.72;;;;;;;13.33;78.20;99628.28;1754884;79;21066;-63
2022/09/13 00:42:40;;;;;;;6.10;3.37;;;;;;;13.39;78.20;99632.09;1765476;80;21170;-63
2022/09/13 00:45:14;;;;;;;6.20;3.72;;;;;;;13.37;78.08;99628.28;1724497;81;21385;-63
2022/09/13 00:47:56;;;;;;;5.05;3.10;;;;;;;13.35;78.33;99628.13;1757137;80;21102;-63
2022/09/13 00:50:34;;;;;;;7.12;3.70;;;;;;;13.39;78.20;99630.77;1762493;80;21139;-62
2022/09/13 00:53:06;;;;;;;5.97;3.52;;;;;;;13.43;78.06;99633.44;1763079;80;21054;-62
2022/09/13 00:55:41;;;;;;;6.40;3.35;;;;;;;13.46;78.09;99631.77;1758698;80;21530;-62
2022/09/13 00:58:21;;;;;;;7.40;3.87;;;;;;;13.45;78.06;99635.89;1772138;80;21050;-62
2022/09/13 01:00:47;;;;;;;8.08;3.87;;;;;;;13.44;78.18;99626.33;1755293;80;21090;-61
2022/09/13 01:03:14;;;;;;;6.42;3.55;;;;;;;13.39;78.30;99620.20;1749760;80;21233;-60
2022/09/13 01:05:46;;;;;;;9.38;3.98;;;;;;;13.40;78.36;99624.50;1762766;79;21051;-62
2022/09/13 01:08:19;;;;;;;7.50;4.28;;;;;;;13.41;78.14;99623.50;1755679;79;21067;-61
2022/09/13 01:10:42;;;;;;;6.22;3.72;;;;;;;13.41;78.32;99618.22;1751499;80;21060;-61
2022/09/13 01:13:13;;;;;;;5.50;3.58;;;;;;;13.43;78.46;99624.19;1765007;79;21130;-61
2022/09/13 01:15:42;;;;;;;6.58;3.80;;;;;;;13.45;78.73;99627.50;1752836;80;21223;-61
2022/09/13 01:18:09;;;;;;;6.17;4.00;;;;;;;13.48;78.74;99628.50;1767607;79;21052;-60
2022/09/13 01:21:01;;;;;;;7.87;4.40;;;;;;;13.54;78.54;99632.31;1700496;82;21074;-58
2022/09/13 01:23:57;;;;;;;7.25;4.60;;;;;;;13.54;78.32;99630.48;1734190;81;21130;-59
2022/09/13 01:26:36;;;;;;;7.22;4.22;;;;;;;13.53;78.30;99625.36;1734259;81;21067;-59
2022/09/13 01:29:26;;;;;;;8.68;5.12;;;;;;;13.39;78.63;99620.20;1706694;82;21127;-58
2022/09/13 01:32:26;;;;;;;7.15;4.30;;;;;;;13.39;79.07;99616.23;1702948;82;21065;-58
2022/09/13 01:35:02;;;;;;;8.65;4.80;;;;;;;13.43;79.02;99616.27;1707783;82;21059;-59
2022/09/13 01:37:57;;;;;;;7.42;4.72;;;;;;;13.49;79.25;99618.75;1703043;82;21503;-59
2022/09/13 01:40:44;;;;;;;7.87;5.10;;;;;;;13.45;79.28;99614.28;1705841;83;21072;-59
2022/09/13 01:43:38;;;;;;;10.90;4.42;;;;;;;13.40;79.55;99608.66;1697744;82;21146;-59
2022/09/13 01:46:08;;;;;;;8.73;5.12;;;;;;;13.42;79.71;99610.63;1702124;82;21111;-59
2022/09/13 01:48:57;;;;;;;10.03;4.70;;;;;;;13.53;79.67;99613.46;1713387;82;21090;-58
2022/09/13 01:51:31;;;;;;;7.87;5.37;;;;;;;13.61;79.54;99609.52;1746777;80;21569;-59
2022/09/13 01:54:17;;;;;;;7.60;5.33;;;;;;;13.63;79.44;99608.86;1760154;80;21055;-58
2022/09/13 01:56:52;;;;;;;6.70;4.12;;;;;;;13.60;79.41;99601.28;1755409;80;21131;-58
2022/09/13 01:59:27;;;;;;;6.85;4.25;;;;;;;13.62;79.33;99603.77;1752729;79;21023;-58
2022/09/13 02:02:14;;;;;;;6.70;4.12;;;;;;;13.64;79.20;99605.23;1764063;80;21075;-58
2022/09/13 02:04:48;;;;;;;6.80;4.80;;;;;;;13.66;79.27;99602.44;1772992;79;21087;-58
2022/09/13 02:07:37;;;;;;;7.60;4.80;;;;;;;13.66;79.53;99598.47;1764758;80;21003;-58
2022/09/13 02:10:10;;;;;;;8.60;3.98;;;;;;;13.63;79.57;99596.97;1758707;80;21078;-58
2022/09/13 02:12:37;;;;;;;8.10;4.90;;;;;;;13.66;79.58;99600.61;1768445;79;21024;-58
2022/09/13 02:15:15;;;;;;;7.00;4.65;;;;;;;13.70;79.72;99595.34;1727635;80;21054;-58
2022/09/13 02:17:49;;;;;;;9.03;4.62;;;;;;;13.74;79.73;99597.17;1760576;80;21096;-58
2022/09/13 02:20:22;;;;;;;10.23;5.67;;;;;;;13.72;80.07;99597.83;1761710;80;21087;-58
2022/09/13 02:22:54;;;;;;;8.88;4.72;;;;;;;13.72;80.50;99592.55;1750005;80;21219;-58
2022/09/13 02:25:22;;;;;;;7.67;5.05;;;;;;;13.75;80.62;99596.16;1761881;79;21589;-58
2022/09/13 02:27:53;;;;;;;7.53;4.65;;;;;;;13.78;81.15;99597.66;1758991;80;21122;-57
2022/09/13 02:30:21;;;;;;;8.45;5.40;;;;;;;13.80;81.62;99597.00;1751317;80;21109;-57
2022/09/13 02:32:55;;;;;;;8.95;5.72;;;;;;;13.84;81.83;99592.55;1761023;79;22259;-58
2022/09/13 02:35:32;;;;;;;8.53;5.22;;;;;;;13.87;82.47;99592.23;1766580;80;21954;-58
2022/09/13 02:38:13;;;;;;;7.62;5.08;;;;;;;13.91;82.12;99589.58;1756265;80;21129;-58
2022/09/13 02:40:48;;;;;;;7.45;4.45;;;;;;;14.02;82.08;99592.89;1756034;80;21102;-59
2022/09/13 02:43:19;;;;;;;7.78;5.58;;;;;;;14.05;81.49;99582.80;1750798;79;21471;-59
2022/09/13 02:45:57;;;;;;;7.12;4.92;;;;;;;14.11;81.53;99590.59;1763756;80;21546;-58
2022/09/13 02:48:33;;;;;;;7.70;5.55;;;;;;;14.12;81.10;99590.91;1749220;80;21158;-59
2022/09/13 02:51:06;;;;;;;9.18;6.08;;;;;;;14.09;81.12;99584.65;1753766;80;21609;-59
2022/09/13 02:53:50;;;;;;;8.00;5.37;;;;;;;14.06;81.27;99581.00;1763832;80;21062;-61
2022/09/13 02:56:40;;;;;;;8.43;6.37;;;;;;;14.09;80.89;99584.14;1766136;80;21074;-60
2022/09/13 02:59:16;;;;;;;8.23;5.65;;;;;;;14.06;80.86;99580.50;1752460;80;21067;-61
2022/09/13 03:01:48;;;;;;;9.40;5.70;;;;;;;14.05;81.10;99582.80;1764149;80;21088;-59
2022/09/13 03:04:15;;;;;;;10.30;7.08;;;;;;;14.08;81.03;99582.48;1757035;79;21150;-62
2022/09/13 03:06:42;;;;;;;9.33;6.78;;;;;;;14.10;80.95;99581.84;1744819;80;21050;-63
2022/09/13 03:09:09;;;;;;;9.80;6.12;;;;;;;14.07;80.95;99583.48;1753325;80;21503;-64
2022/09/13 03:12:13;;;;;;;9.73;6.37;;;;;;;14.04;81.01;99585.64;1762975;80;21047;-61
2022/09/13 03:15:13;;;;;;;7.30;5.37;;;;;;;14.02;81.04;99578.34;1750354;80;21533;-60
2022/09/13 03:18:20;;;;;;;8.95;6.60;;;;;;;14.03;80.91;99582.66;1760826;80;20987;-61
2022/09/13 03:21:20;;;;;;;9.85;7.35;;;;;;;14.06;80.96;99581.82;1753716;80;21604;-61
2022/09/13 03:24:27;;;;;;;7.85;6.05;;;;;;;14.07;80.83;99575.55;1752377;80;21074;-60
2022/09/13 03:27:31;;;;;;;8.73;6.42;;;;;;;14.06;80.71;99590.27;1770881;80;21058;-63
2022/09/13 03:30:08;;;;;;;8.28;6.17;;;;;;;14.01;81.02;99585.97;1749385;80;21151;-60
2022/09/13 03:33:04;;;;;;;7.92;5.58;;;;;;;14.00;80.96;99592.23;1761323;79;21007;-58
2022/09/13 03:36:00;;;;;;;9.18;6.00;;;;;;;14.10;80.81;99591.09;1745389;80;21451;-60
2022/09/13 03:38:44;;;;;;;9.33;7.28;;;;;;;14.19;79.98;99586.62;1752555;80;26599;-59
2022/09/13 03:41:21;;;;;;;10.05;6.87;;;;;;;14.16;79.88;99587.46;1747896;79;21083;-60
2022/09/13 03:43:57;;;;;;;9.13;6.80;;;;;;;14.13;80.37;99592.06;1749885;80;21845;-59
2022/09/13 03:46:34;;;;;;;8.58;5.80;;;;;;;14.12;80.46;99593.08;1740419;80;21004;-59
2022/09/13 03:49:04;;;;;;;10.03;6.45;;;;;;;14.09;80.40;99598.69;1758341;79;21078;-59
2022/09/13 03:51:31;;;;;;;8.90;6.65;;;;;;;14.11;80.43;99593.23;1766432;79;21031;-58
2022/09/13 03:54:01;;;;;;;7.92;5.40;;;;;;;14.11;80.33;99599.85;1706178;80;21110;-47
2022/09/13 03:56:27;;;;;;;8.70;5.75;;;;;;;14.12;80.46;99598.84;1758980;80;21114;-47
2022/09/13 03:58:54;;;;;;;8.05;6.22;;;;;;;14.11;80.47;99599.34;1762746;80;21007;-46
2022/09/13 04:01:22;;;;;;;8.20;5.70;;;;;;;14.09;80.60;99606.63;1754570;80;21069;-47
2022/09/13 04:03:49;;;;;;;8.18;5.47;;;;;;;14.07;80.41;99605.97;1760373;79;21086;-47
2022/09/13 04:06:16;;;;;;;6.90;5.30;;;;;;;14.24;80.33;99602.83;1754101;80;21091;-47
2022/09/13 04:08:43;;;;;;;7.53;5.37;;;;;;;14.33;79.36;99610.77;1762048;79;21208;-46
2022/09/13 04:11:10;;;;;;;7.50;5.10;;;;;;;14.35;79.33;99607.45;1762240;80;21640;-47
2022/09/13 04:13:37;;;;;;;8.90;5.37;;;;;;;14.34;79.08;99607.11;1717076;83;21434;-50
2022/09/13 04:16:05;;;;;;;8.20;6.10;;;;;;;14.28;79.14;99604.14;1722415;81;21058;-47
2022/09/13 04:18:32;;;;;;;7.45;5.17;;;;;;;14.24;79.32;99609.45;1721950;83;21162;-47
2022/09/13 04:21:00;;;;;;;7.95;5.60;;;;;;;14.22;79.69;99607.47;1723616;81;21286;-47
2022/09/13 04:23:27;;;;;;;9.90;6.55;;;;;;;14.26;79.31;99609.28;1695410;82;21122;-46
2022/09/13 04:26:03;;;;;;;7.22;5.70;;;;;;;14.27;79.19;99610.45;1700609;82;21013;-47
2022/09/13 04:28:30;;;;;;;8.48;6.17;;;;;;;14.23;79.16;99610.94;1697579;82;21344;-47
2022/09/13 04:30:57;;;;;;;8.40;6.15;;;;;;;14.18;79.16;99611.42;1707856;82;21439;-46
2022/09/13 04:33:23;;;;;;;8.85;5.67;;;;;;;14.09;79.49;99600.52;1701503;82;21126;-48
2022/09/13 04:35:59;;;;;;;9.75;5.90;;;;;;;14.06;79.67;99612.75;1700862;82;21048;-47
2022/09/13 04:38:26;;;;;;;9.03;6.00;;;;;;;14.07;79.73;99606.45;1718018;83;21099;-46
2022/09/13 04:40:57;;;;;;;10.32;6.47;;;;;;;14.06;79.75;99614.07;1716714;81;21030;-46
2022/09/13 04:43:24;;;;;;;8.25;5.70;;;;;;;14.04;79.74;99612.91;1692197;83;21102;-46
2022/09/13 04:45:51;;;;;;;8.63;6.45;;;;;;;14.00;80.07;99615.53;1696625;83;21132;-46
2022/09/13 04:48:17;;;;;;;11.83;6.75;;;;;;;14.00;80.40;99613.39;1719160;83;21051;-49
2022/09/13 04:50:45;;;;;;;10.32;6.87;;;;;;;14.04;80.54;99614.23;1719350;81;22316;-46
2022/09/13 04:53:11;;;;;;;8.68;7.08;;;;;;;14.09;80.34;99621.17;1717536;82;21114;-47
2022/09/13 04:55:37;;;;;;;9.63;6.30;;;;;;;14.10;80.16;99620.20;1705237;82;21094;-48
2022/09/13 04:58:04;;;;;;;10.18;7.35;;;;;;;14.17;80.65;99610.27;1702503;82;21261;-46
2022/09/13 05:00:31;;;;;;;12.80;7.60;;;;;;;14.25;80.19;99622.17;1722739;81;21047;-46
2022/09/13 05:03:00;;;;;;;10.63;7.08;;;;;;;14.26;80.02;99622.52;1693868;83;21601;-46
2022/09/13 05:05:28;;;;;;;9.75;7.87;;;;;;;14.22;79.90;99622.02;1697842;82;21123;-63
2022/09/13 05:07:56;;;;;;;9.55;6.92;;;;;;;14.13;80.06;99624.31;1693715;82;21159;-59
2022/09/13 05:10:23;;;;;;;9.05;6.67;;;;;;;14.07;80.37;99618.35;1690388;82;22138;-61
2022/09/13 05:12:51;;;;;;;12.00;6.37;;;;;;;14.10;80.57;99608.30;1692543;82;21013;-62
2022/09/13 05:15:18;;;;;;;8.40;6.17;;;;;;;14.42;80.40;99615.05;1691338;83;21619;-60
2022/09/13 05:17:44;;;;;;;10.13;6.95;;;;;;;14.63;78.88;99611.42;1687919;83;21113;-60
2022/09/13 05:20:12;;;;;;;10.98;7.03;;;;;;;14.86;78.01;99612.03;1692086;82;21569;-58
2022/09/13 05:22:38;;;;;;;10.58;6.05;;;;;;;14.95;76.89;99614.18;1695786;83;21111;-59
2022/09/13 05:25:07;;;;;;;10.72;6.67;;;;;;;14.97;76.68;99618.80;1690738;83;21128;-59
2022/09/13 05:27:34;;;;;;;8.13;5.78;;;;;;;15.17;75.73;99621.89;1693090;83;21119;-58
2022/09/13 05:30:03;;;;;;;9.53;7.60;;;;;;;15.31;74.54;99629.10;1690673;83;21080;-59
2022/09/13 05:32:31;;;;;;;10.45;7.33;;;;;;;15.41;73.82;99627.06;1693810;83;21083;-58
2022/09/13 05:34:57;;;;;;;10.58;6.87;;;;;;;15.51;73.32;99628.19;1689976;82;21100;-59
2022/09/13 05:37:24;;;;;;;10.63;6.72;;;;;;;15.58;72.84;99626.99;1755786;80;21103;-60
2022/09/13 05:39:50;;;;;;;11.97;7.60;;;;;;;15.73;72.26;99632.39;1756176;80;21031;-59
2022/09/13 05:42:17;;;;;;;10.03;7.55;;;;;;;15.98;70.76;99638.40;1715647;82;21067;-59
2022/09/13 05:44:43;;;;;;;9.48;6.80;;;;;;;15.79;70.44;99633.05;1757765;80;21122;-59
2022/09/13 05:47:13;;;;;;;9.48;7.00;;;;;;;15.52;71.82;99642.29;1746478;79;21125;-61
2022/09/13 05:49:40;;;;;;;10.82;8.38;;;;;;;15.52;72.12;99643.11;1718860;81;21036;-46
2022/09/13 05:52:07;;;;;;;9.83;7.78;;;;;;;15.54;72.01;99641.61;1714975;81;21506;-46
2022/09/13 05:54:35;;;;;;;11.97;7.72;;;;;;;15.61;72.09;99648.68;1749365;80;21536;-46
2022/09/13 05:57:02;;;;;;;11.08;7.45;;;;;;;15.70;71.39;99649.49;1752607;80;21137;-46
2022/09/13 05:59:30;;;;;;;10.05;7.80;;;;;;;15.64;71.30;99651.50;1751042;80;21095;-48
2022/09/13 06:01:57;;;;;;;10.15;7.00;;;;;;;15.47;71.58;99648.61;1747845;80;21652;-46
2022/09/13 06:04:24;;;;;;;8.55;6.42;;;;;;;15.51;72.03;99651.23;1756215;80;21098;-45
2022/09/13 06:06:51;;;;;;;16.00;7.10;;;;;;;15.57;71.61;99654.02;1756069;81;21087;-45
2022/09/13 06:09:18;;;;;;;9.90;6.83;;;;;;;15.49;71.43;99655.89;1754337;79;21015;-45
2022/09/13 06:11:45;;;;;;;9.15;7.17;;;;;;;15.41;71.80;99665.50;1751149;80;23348;-45
2022/09/13 06:14:13;;;;;;;9.43;7.83;;;;;;;15.26;71.79;99663.75;1725049;81;21096;-45
2022/09/13 06:16:39;;;;;;;11.57;8.33;;;;;;;15.11;72.27;99667.61;1736466;81;21046;-45
2022/09/13 06:19:06;;;;;;;9.05;6.22;;;;;;;15.04;72.42;99668.27;1718015;82;21503;-46
2022/09/13 06:21:32;;;;;;;10.63;7.30;;;;;;;15.07;73.17;99670.28;1713164;81;21047;-46
2022/09/13 06:23:59;;;;;;;12.75;8.50;;;;;;;15.28;72.77;99671.88;1756596;80;21957;-46
2022/09/13 06:26:27;;;;;;;11.85;8.15;;;;;;;15.34;72.07;99668.52;1713536;81;21463;-46
2022/09/13 06:28:55;;;;;;;15.53;10.20;;;;;;;15.31;71.44;99672.02;1712114;81;21374;-47
2022/09/13 06:31:24;;;;;;;13.40;9.63;;;;;;;15.14;71.37;99677.88;1696716;83;21020;-47
2022/09/13 06:34:01;;;;;;;12.40;8.80;;;;;;;14.89;72.07;99683.72;1689956;83;21075;-46
2022/09/13 06:36:27;;;;;;;13.88;9.20;;;;;;;14.88;73.12;99686.02;1696016;83;21305;-45
2022/09/13 06:38:54;;;;;;;16.52;10.20;;;;;;;14.91;72.87;99683.05;1713667;81;21071;-45
2022/09/13 06:41:22;;;;;;;14.43;11.75;;;;;;;14.90;72.51;99682.73;1687414;82;21068;-45
2022/09/13 06:43:54;;;;;;;14.30;9.78;;;;;;;14.75;72.30;99683.91;1682862;83;21526;-46
2022/09/13 06:46:21;;;;;;;13.68;9.45;;;;;;;14.57;72.79;99684.04;1758472;80;21074;-47
2022/09/13 06:48:48;;;;;;;16.32;10.30;;;;;;;14.53;74.05;99688.02;1742384;80;21212;-46
2022/09/13 06:51:17;;;;;;;18.00;12.00;;;;;;;14.75;73.31;99683.91;1737035;80;21134;-46
2022/09/13 06:53:45;;;;;;;13.38;9.75;;;;;;;14.77;72.86;99693.83;1742945;80;21091;-46
2022/09/13 06:56:27;;;;;;;15.90;10.82;;;;;;;14.62;73.55;99685.72;1738218;80;20992;-46
2022/09/13 06:58:56;;;;;;;17.98;10.63;;;;;;;14.60;73.82;99697.80;1743409;80;21514;-45
2022/09/13 07:01:29;;;;;;;14.65;10.00;;;;;;;14.75;73.85;99699.80;1749405;79;21180;-46
2022/09/13 07:04:02;;;;;;;14.50;10.03;;;;;;;14.93;73.57;99697.79;1747940;79;21069;-46
2022/09/13 07:06:31;;;;;;;12.98;9.63;;;;;;;15.02;72.07;99702.06;1754473;79;21102;-46
2022/09/13 07:08:59;;;;;;;13.15;9.25;;;;;;;14.84;72.04;99705.40;1756729;79;21052;-46
2022/09/13 07:11:30;;;;;;;12.30;8.60;;;;;;;14.68;72.50;99716.34;1766269;79;21046;-46
2022/09/13 07:13:58;;;;;;;12.82;8.73;;;;;;;14.56;72.75;99711.49;1746308;80;21747;-45
2022/09/13 07:16:31;;;;;;;18.27;10.25;;;;;;;14.45;73.05;99717.95;1758340;79;21033;-46
2022/09/13 07:19:00;;;;;;;11.08;7.47;;;;;;;14.30;73.18;99719.09;1767020;79;21003;-45
2022/09/13 07:21:27;;;;;;;18.15;9.28;;;;;;;14.19;74.50;99724.21;1753991;79;21051;-46
2022/09/13 07:23:55;;;;;;;13.70;8.13;;;;;;;14.34;73.81;99725.73;1755156;79;21530;-46
2022/09/13 07:26:21;;;;;;;12.40;8.93;;;;;;;14.47;73.10;99721.26;1763926;80;21088;-46
2022/09/13 07:28:51;;;;;;;15.10;10.58;;;;;;;14.61;72.97;99715.35;1769891;80;22219;-46
2022/09/13 07:31:21;;;;;;;14.68;9.95;;;;;;;14.88;71.71;99726.60;1760899;80;21110;-46
2022/09/13 07:33:54;;;;;;;15.10;9.43;;;;;;;14.88;71.31;99724.43;1760723;79;21105;-46
2022/09/13 07:36:21;;;;;;;13.10;9.98;;;;;;;14.73;71.21;99719.00;1754476;79;21012;-46
2022/09/13 07:38:48;;;;;;;14.35;9.93;;;;;;;14.61;71.35;99720.65;1757861;80;21476;-46
2022/09/13 07:41:17;;;;;;;15.72;10.05;;;;;;;14.56;71.05;99718.96;1749199;80;21621;-46
2022/09/13 07:43:44;;;;;;;15.78;10.70;;;;;;;14.47;71.90;99726.55;1758683;79;21058;-46
2022/09/13 07:46:20;;;;;;;12.55;9.95;;;;;;;14.42;72.12;99715.62;1761330;80;21333;-46
2022/09/13 07:48:47;;;;;;;14.15;9.55;;;;;;;14.40;72.41;99714.97;1755891;79;21577;-46
2022/09/13 07:51:19;;;;;;;15.35;10.53;;;;;;;14.46;72.05;99714.33;1758729;80;21390;-46
2022/09/13 07:53:47;;;;;;;17.10;10.53;;;;;;;14.48;71.93;99713.66;1756675;79;21062;-45
2022/09/13 07:56:16;;;;;;;16.95;11.03;;;;;;;14.46;71.87;99714.33;1758262;79;21165;-47
2022/09/13 07:58:45;;;;;;;18.17;9.93;;;;;;;14.40;71.98;99712.33;1757059;80;21125;-45
2022/09/13 08:01:18;;;;;;;14.93;10.25;;;;;;;14.41;72.45;99710.02;1756258;79;21122;-45
2022/09/13 08:03:51;;;;;;;14.28;10.63;;;;;;;14.50;71.82;99701.08;1766357;79;21510;-46
2022/09/13 08:06:20;;;;;;;16.45;11.53;;;;;;;14.48;71.78;99704.39;1761154;80;21578;-45
2022/09/13 08:08:46;;;;;;;15.93;11.22;;;;;;;14.46;72.31;99700.59;1766238;80;21106;-48
2022/09/13 08:11:21;;;;;;;16.20;11.18;;;;;;;14.52;71.98;99704.38;1756728;80;21099;-46
2022/09/13 08:13:48;;;;;;;14.75;10.82;;;;;;;14.52;71.60;99707.03;1758294;79;21546;-48
2022/09/13 08:16:16;;;;;;;15.75;10.40;;;;;;;14.48;71.37;99704.39;1758336;80;21119;-45
2022/09/13 08:18:44;;;;;;;13.00;9.43;;;;;;;14.38;71.17;99707.20;1720180;81;21563;-45
2022/09/13 08:21:10;;;;;;;14.03;9.90;;;;;;;14.33;72.45;99700.25;1751997;80;21084;-46
2022/09/13 08:23:37;;;;;;;12.85;9.05;;;;;;;14.44;72.53;99700.41;1747294;81;21071;-45
2022/09/13 08:26:06;;;;;;;10.65;7.47;;;;;;;14.56;72.50;99711.02;1746951;80;21665;-46
2022/09/13 08:28:34;;;;;;;11.28;8.35;;;;;;;14.83;71.96;99704.58;1753638;79;21080;-46
2022/09/13 08:31:08;;;;;;;11.80;8.68;;;;;;;15.09;70.42;99702.72;1747406;81;21480;-45
2022/09/13 08:33:36;;;;;;;16.40;9.90;;;;;;;15.19;69.55;99698.88;1754664;81;21021;-47
2022/09/13 08:36:03;;;;;;;14.13;9.88;;;;;;;15.21;68.46;99696.06;1747256;80;21078;-46
2022/09/13 08:38:31;;;;;;;13.93;8.28;;;;;;;15.14;68.31;99703.86;1720676;81;21067;-46
2022/09/13 08:41:24;;;;;;;12.78;8.35;;;;;;;15.14;68.99;99697.23;1713830;83;21486;-47
2022/09/13 08:44:02;;;;;;;16.95;10.68;;;;;;;15.11;69.09;99699.40;1687594;83;21023;-48
2022/09/13 08:46:40;;;;;;;15.18;10.90;;;;;;;14.96;68.57;99704.08;1748624;80;21569;-47
2022/09/13 08:49:19;;;;;;;12.82;9.40;;;;;;;14.76;69.34;99703.60;1763174;80;21058;-46
2022/09/13 08:51:52;;;;;;;13.08;8.85;;;;;;;14.62;70.12;99699.78;1762015;80;20996;-48
2022/09/13 08:54:19;;;;;;;16.37;8.80;;;;;;;14.68;70.80;99702.28;1761295;81;21059;-46
2022/09/13 08:57:09;;;;;;;18.17;9.58;;;;;;;14.72;69.71;99704.09;1750563;80;21094;-48
2022/09/13 09:00:14;;;;;;;12.90;9.08;;;;;;;14.70;69.87;99702.94;1750958;81;21035;-46
2022/09/13 09:03:04;;;;;;;11.12;8.28;;;;;;;14.59;69.70;99699.28;1749436;79;21102;-46
2022/09/13 09:05:32;;;;;;;15.15;9.30;;;;;;;14.43;70.35;99697.45;1714350;82;21142;-46
2022/09/13 09:08:26;;;;;;;13.25;9.40;;;;;;;14.45;70.49;99698.10;1713064;81;21025;-46
2022/09/13 09:10:53;;;;;;;13.28;10.13;;;;;;;14.39;70.45;99709.34;1725975;81;21044;-46
2022/09/13 09:13:33;;;;;;;14.07;9.55;;;;;;;14.30;70.50;99706.67;1700785;83;21134;-46
2022/09/13 09:16:12;;;;;;;14.90;9.30;;;;;;;14.21;71.06;99711.64;1762639;80;21004;-48
2022/09/13 09:18:39;;;;;;;12.07;8.73;;;;;;;14.20;70.81;99708.66;1758227;80;21742;-46
2022/09/13 09:21:09;;;;;;;12.25;9.18;;;;;;;14.24;71.21;99702.06;1760043;80;21127;-47
2022/09/13 09:23:40;;;;;;;13.60;9.80;;;;;;;14.24;70.53;99701.20;1717591;80;21051;-46
2022/09/13 09:26:22;;;;;;;11.45;9.43;;;;;;;14.18;71.16;99698.73;1765973;79;21146;-46
2022/09/13 09:28:55;;;;;;;14.10;10.28;;;;;;;14.19;71.30;99703.52;1753650;80;21043;-51
2022/09/13 09:31:59;;;;;;;12.98;8.93;;;;;;;14.21;71.27;99705.53;1759990;80;21173;-46
2022/09/13 09:34:43;;;;;;;13.50;8.65;;;;;;;14.25;70.94;99697.08;1766080;80;21059;-47
2022/09/13 09:37:15;;;;;;;13.88;8.73;;;;;;;14.25;70.98;99700.23;1766351;80;21106;-46
2022/09/13 09:39:42;;;;;;;12.35;9.50;;;;;;;14.22;70.15;99697.43;1764740;80;21043;-46
2022/09/13 09:42:25;;;;;;;10.53;7.95;;;;;;;14.15;70.27;99698.23;1760210;80;21550;-46
2022/09/13 09:44:59;;;;;;;13.25;8.43;;;;;;;14.07;70.35;99695.91;1767292;80;21066;-46
2022/09/13 09:47:33;;;;;;;12.18;8.68;;;;;;;14.16;70.20;99701.22;1763441;80;21080;-46
2022/09/13 09:50:11;;;;;;;11.60;8.50;;;;;;;14.21;69.80;99693.12;1760784;80;21097;-46
2022/09/13 09:52:50;;;;;;;13.80;9.10;;;;;;;14.25;69.88;99698.41;1769122;79;21612;-46
2022/09/13 09:55:27;;;;;;;11.48;8.15;;;;;;;14.27;69.25;99696.44;1759257;80;21388;-46
2022/09/13 09:57:59;;;;;;;13.38;8.23;;;;;;;14.17;69.28;99690.95;1769115;79;21125;-46
2022/09/13 10:00:29;;;;;;;10.75;8.55;;;;;;;14.11;68.87;99696.41;1766232;80;21254;-46
2022/09/13 10:03:00;;;;;;;11.35;8.88;;;;;;;14.03;69.16;99695.06;1760620;79;21073;-46
2022/09/13 10:05:26;;;;;;;11.60;8.75;;;;;;;14.01;69.34;99699.70;1759071;79;20991;-46
2022/09/13 10:07:57;;;;;;;19.65;8.65;;;;;;;14.00;69.70;99694.06;1763242;80;21082;-46
2022/09/13 10:10:35;;;;;;;10.15;7.80;;;;;;;13.97;69.89;99694.38;1756744;80;21111;-46
2022/09/13 10:13:04;;;;;;;15.00;8.33;;;;;;;14.00;70.02;99697.53;1753345;81;21283;-46
2022/09/13 10:15:33;;;;;;;9.98;7.58;;;;;;;14.03;70.06;99695.06;1753233;80;21127;-46
2022/09/13 10:18:04;;;;;;;11.73;8.85;;;;;;;14.06;71.38;99691.60;1749473;79;21114;-46
2022/09/13 10:33:41;;;;;;;12.33;8.35;;;;;;;14.72;67.21;99700.12;1868468;76;22678;-46
2022/09/13 10:36:24;;;;;;;12.63;7.67;;;;;;;14.61;66.49;99703.44;1813869;77;21077;-46
2022/09/13 10:39:03;;;;;;;15.00;8.00;;;;;;;14.40;67.27;99704.39;1774485;80;21249;-46
2022/09/13 10:41:34;;;;;;;12.82;8.23;;;;;;;14.18;67.40;99717.25;1745789;80;21030;-48
2022/09/13 10:44:03;;;;;;;10.35;7.60;;;;;;;13.98;67.84;99707.45;1760287;79;21090;-48
2022/09/13 10:46:32;;;;;;;10.75;7.67;;;;;;;13.86;67.98;99707.42;1767128;80;21572;-47
2022/09/13 10:48:59;;;;;;;13.20;7.90;;;;;;;13.81;68.33;99716.34;1765816;80;21420;-47
2022/09/13 10:51:34;;;;;;;10.30;7.50;;;;;;;13.74;68.61;99713.50;1769418;79;21163;-48
2022/09/13 10:54:22;;;;;;;12.65;7.58;;;;;;;13.67;68.90;99713.81;1765631;79;21148;-47
2022/09/13 10:56:50;;;;;;;9.73;6.55;;;;;;;13.54;69.03;99718.21;1775987;80;21543;-46
2022/09/13 10:59:28;;;;;;;9.15;6.60;;;;;;;13.53;69.05;99724.00;1770871;80;21117;-46
2022/09/13 11:02:11;;;;;;;9.98;7.15;;;;;;;13.58;69.18;99715.57;1766824;80;21113;-46
2022/09/13 11:05:06;;;;;;;11.65;7.65;;;;;;;13.55;68.71;99728.63;1767432;80;22221;-47
2022/09/13 11:07:43;;;;;;;16.90;8.00;;;;;;;13.50;68.71;99720.81;1760617;80;21077;-47
2022/09/13 11:10:33;;;;;;;9.90;6.25;;;;;;;13.45;69.09;99725.75;1773913;80;21165;-47
2022/09/13 11:13:17;;;;;;;16.35;7.12;;;;;;;13.49;69.23;99720.50;1770223;79;21059;-47
2022/09/13 11:16:05;;;;;;;10.10;7.42;;;;;;;13.54;69.17;99716.38;1765158;79;21533;-47
2022/09/13 11:19:09;;;;;;;12.20;6.92;;;;;;;13.60;69.41;99722.02;1767828;79;21200;-47
2022/09/13 11:21:44;;;;;;;11.80;6.50;;;;;;;13.66;69.29;99719.57;1771593;80;21113;-47
2022/09/13 11:24:42;;;;;;;10.73;7.33;;;;;;;13.74;69.02;99718.28;1765410;79;21470;-46
2022/09/13 11:27:42;;;;;;;13.30;7.22;;;;;;;13.83;69.01;99709.88;1767088;80;21605;-46
2022/09/13 11:30:21;;;;;;;12.25;6.85;;;;;;;13.91;68.61;99717.84;1768675;79;21096;-47
2022/09/13 11:33:11;;;;;;;13.98;7.10;;;;;;;13.92;68.63;99716.87;1776514;79;21085;-47
2022/09/13 11:36:14;;;;;;;8.28;5.90;;;;;;;13.91;68.43;99708.59;1771055;79;21084;-47
2022/09/13 11:39:16;;;;;;;12.05;7.30;;;;;;;13.92;68.09;99721.34;1765092;79;21122;-46
2022/09/13 11:42:17;;;;;;;14.60;6.67;;;;;;;13.87;68.24;99715.20;1775589;80;21034;-46
2022/09/13 11:45:13;;;;;;;12.95;6.70;;;;;;;13.81;68.61;99723.77;1765760;79;21034;-50
2022/09/13 11:48:12;;;;;;;15.08;6.08;;;;;;;13.73;68.57;99721.09;1769740;80;21131;-47
2022/09/13 11:51:39;;;;;;;9.85;6.95;;;;;;;13.71;68.45;99722.56;1762384;79;21015;-47
2022/09/13 11:54:32;;;;;;;11.65;7.40;;;;;;;13.70;67.77;99727.54;1765887;80;21165;-47
2022/09/13 11:57:02;;;;;;;13.25;6.92;;;;;;;13.63;67.97;99729.64;1773791;80;21011;-47
2022/09/13 11:59:45;;;;;;;9.05;5.95;;;;;;;13.54;68.08;99725.64;1764833;79;21132;-47
2022/09/13 12:02:17;;;;;;;11.28;6.42;;;;;;;13.52;68.31;99728.12;1767895;79;21691;-47
2022/09/13 12:05:06;;;;;;;13.80;7.12;;;;;;;13.56;68.24;99728.94;1769350;80;21031;-47
2022/09/13 12:07:44;;;;;;;13.55;7.25;;;;;;;13.58;68.46;99729.29;1762944;79;21126;-47
2022/09/13 12:10:22;;;;;;;14.78;7.47;;;;;;;13.58;68.36;99734.58;1766093;79;21124;-47
2022/09/13 12:12:49;;;;;;;12.37;6.70;;;;;;;13.56;68.49;99736.05;1764970;79;21086;-46
2022/09/13 12:15:27;;;;;;;10.40;6.47;;;;;;;13.56;68.44;99734.23;1770004;79;21552;-46